Fort Worth Meacham Intl Information

FAA: FTW - ICAO: KFTW

Fort Worth Meacham Intl (Airport) Location

State Texas
County Tarrant
City Fort Worth
Fort Worth Meacham Intl (Airport) is 5 miles north of Fort Worth, TX.
Latitude 32-49-11.1730N
Longitude 097-21-44.8200W
Elevation 710ft

Fort Worth Meacham Intl METARs

METAR KFTW 190153Z 17014G24KT 10SM CLR 19/08 A2978 RMK AO2 SLP080 T01890078
Altimeter 29.78"
Temperature 18.9°C (66.0°F)
Wind 170° at 14KT with gusts to 24KT
Clouds Skies are clear.
Visibility 10.0mi
Time observed: 2022-01-19T01:53:00Z

Fort Worth Meacham Intl (Airport) Details

Status Operational
Activation February 1938
Ownership Public
Usage Public
Chart DALLAS-FT WORTH
ATC on-site Yes
Beacon schedule sunset-sunrise
Beacon color clear green

Fort Worth Meacham Intl (Airport) Contacts

Owner CITY OF FORT WORTH
Owner address 1000 THROCKMORTON ST., FORT WORTH, TX 76102-6311
Owner phone 817-392-5400
Manager SHAWN HARRIS
Manager address 285 BLACKLAND ROAD, FATE, TX 75189
Manager phone 972-636-4009

Fort Worth Meacham Intl Radio Frequencies

Fort Worth Meacham Intl (Airport) Radio Frequencies

UNICOM N/A
Common traffic advisory frequency (CTAF) N/A